Brighton, MA

1:45 AM EST on January 27, 2015 (GMT -0500)
Norwood Memorial | Change Station
CLOSE
Current Station
Airport
Location: Norwood,
Elevation: 49 ft
Nearby Weather Stations

Elev 49 ft 42.19 °N, 71.17 °W | Updated 52 minutes ago

Snow
Snow
17 °F
Feels Like 2 °F
N
16
Wind Variable Wind from North
Gusts 28 mph

Today
High -- | Low -- °F
--% Chance of Precip.
Yesterday
High -- | Low -- °F
Precip. -- in
7:03 AM 4:51 PM
Waxing Crescent, 51% visible
Pressure 29.74 in
Visibility 0.5 miles
Clouds
Windchill 2 °F
Dew Point 13 °F
Humidity 84%
Rainfall 0.00 in
Snow Depth Not available.
UV Not available.
Pollen .10 out of 12
Air Quality Not available.
Flu Activity Not available.
METAR KOWD 270553Z 01014G24KT 1/2SM FZFG VV006 M08/M11 A2973 RMK AO2 PK WND 35030/0539 SLP069 60001 T10831106 11022 21083 58050 $

More Conditions Fewer Conditions

Pressure 29.74 in
Visibility 0.5 miles
Clouds
Windchill 2 °F
Dew Point 13 °F
Humidity 84%
Rainfall 0.00 in
Snow Depth Not available.
UV Not available.
Pollen .10 out of 12
Air Quality Not available.
Flu Activity Not available.
METAR KOWD 270553Z 01014G24KT 1/2SM FZFG VV006 M08/M11 A2973 RMK AO2 PK WND 35030/0539 SLP069 60001 T10831106 11022 21083 58050 $

More Conditions Fewer Conditions

10-Day Weather Forecast

Almanac

Astronomy

Jan. 27, 2015 Rise Set
Actual Time
Civil Twilight
Nautical Twilight
Astronomical Twilight
Moon
Length of Visible Light
Length of Day
Tomorrow will be .
, % of the Moon is Illuminated

Today's Extremes

State Highs State Lows

Community

WunderPhotos

Upload Photos

1,790,545 photos uploaded!

WunderBlogs® & News

Nearby

Air Quality

  Air Quality AQ Index Pollutant
Not available.

Snow Depth

Station Depth Elevation

Earthquake Activity

City Distance Mag. Time & Date
Minimum magnitude displayed is 2.5.

Coastal Water Temperatures

Place Temperature

Nearby Weather Stations